sensor_id;sensor_type;location;lat;lon;timestamp;P1;durP1;ratioP1;P2;durP2;ratioP2
55224;SDS011;41091;49.400;8.684;2024-03-22T00:01:39;5.83;;;3.07;;
55224;SDS011;41091;49.400;8.684;2024-03-22T00:04:05;6.43;;;4.20;;
55224;SDS011;41091;49.400;8.684;2024-03-22T00:06:30;5.28;;;3.67;;
55224;SDS011;41091;49.400;8.684;2024-03-22T00:08:55;4.10;;;3.75;;
55224;SDS011;41091;49.400;8.684;2024-03-22T00:11:21;7.05;;;3.72;;
55224;SDS011;41091;49.400;8.684;2024-03-22T00:13:46;7.15;;;3.92;;
55224;SDS011;41091;49.400;8.684;2024-03-22T00:16:11;8.02;;;4.13;;
55224;SDS011;41091;49.400;8.684;2024-03-22T00:18:37;4.88;;;3.38;;
55224;SDS011;41091;49.400;8.684;2024-03-22T00:21:02;5.72;;;3.92;;
55224;SDS011;41091;49.400;8.684;2024-03-22T00:23:28;4.03;;;3.70;;
55224;SDS011;41091;49.400;8.684;2024-03-22T00:25:54;10.13;;;3.13;;
55224;SDS011;41091;49.400;8.684;2024-03-22T00:28:19;5.22;;;4.13;;
55224;SDS011;41091;49.400;8.684;2024-03-22T00:30:45;4.10;;;3.80;;
55224;SDS011;41091;49.400;8.684;2024-03-22T00:33:10;4.35;;;3.83;;
55224;SDS011;41091;49.400;8.684;2024-03-22T00:35:35;6.40;;;4.55;;
55224;SDS011;41091;49.400;8.684;2024-03-22T00:38:01;7.03;;;3.78;;
55224;SDS011;41091;49.400;8.684;2024-03-22T00:40:26;4.40;;;4.07;;
55224;SDS011;41091;49.400;8.684;2024-03-22T00:42:52;5.53;;;4.25;;
55224;SDS011;41091;49.400;8.684;2024-03-22T00:45:17;4.80;;;4.40;;
55224;SDS011;41091;49.400;8.684;2024-03-22T00:47:43;11.18;;;4.38;;
55224;SDS011;41091;49.400;8.684;2024-03-22T00:50:08;5.85;;;5.13;;
55224;SDS011;41091;49.400;8.684;2024-03-22T00:52:33;7.20;;;4.65;;
55224;SDS011;41091;49.400;8.684;2024-03-22T00:54:59;8.07;;;5.57;;
55224;SDS011;41091;49.400;8.684;2024-03-22T00:57:24;7.38;;;5.18;;
55224;SDS011;41091;49.400;8.684;2024-03-22T00:59:50;7.72;;;4.95;;
55224;SDS011;41091;49.400;8.684;2024-03-22T01:02:15;5.78;;;5.18;;
55224;SDS011;41091;49.400;8.684;2024-03-22T01:04:40;6.25;;;5.10;;
55224;SDS011;41091;49.400;8.684;2024-03-22T01:07:06;8.70;;;4.78;;
55224;SDS011;41091;49.400;8.684;2024-03-22T01:09:31;5.65;;;3.92;;
55224;SDS011;41091;49.400;8.684;2024-03-22T01:11:57;3.70;;;3.40;;
55224;SDS011;41091;49.400;8.684;2024-03-22T01:14:22;3.50;;;2.92;;
55224;SDS011;41091;49.400;8.684;2024-03-22T01:16:47;6.00;;;4.35;;
55224;SDS011;41091;49.400;8.684;2024-03-22T01:19:13;6.38;;;3.70;;
55224;SDS011;41091;49.400;8.684;2024-03-22T01:21:38;5.20;;;3.97;;
55224;SDS011;41091;49.400;8.684;2024-03-22T01:24:03;3.60;;;3.30;;
55224;SDS011;41091;49.400;8.684;2024-03-22T01:26:29;5.90;;;3.88;;
55224;SDS011;41091;49.400;8.684;2024-03-22T01:28:54;4.30;;;3.65;;
55224;SDS011;41091;49.400;8.684;2024-03-22T01:31:19;6.30;;;3.83;;
55224;SDS011;41091;49.400;8.684;2024-03-22T01:33:45;5.15;;;3.80;;
55224;SDS011;41091;49.400;8.684;2024-03-22T01:36:10;13.23;;;4.20;;
55224;SDS011;41091;49.400;8.684;2024-03-22T01:38:35;7.78;;;4.97;;
55224;SDS011;41091;49.400;8.684;2024-03-22T01:41:01;8.68;;;4.05;;
55224;SDS011;41091;49.400;8.684;2024-03-22T01:43:26;6.75;;;3.95;;
55224;SDS011;41091;49.400;8.684;2024-03-22T01:45:51;6.47;;;4.68;;
55224;SDS011;41091;49.400;8.684;2024-03-22T01:48:17;6.72;;;4.50;;
55224;SDS011;41091;49.400;8.684;2024-03-22T01:50:42;7.75;;;4.40;;
55224;SDS011;41091;49.400;8.684;2024-03-22T01:53:08;6.18;;;3.88;;
55224;SDS011;41091;49.400;8.684;2024-03-22T01:55:34;5.55;;;4.53;;
55224;SDS011;41091;49.400;8.684;2024-03-22T01:57:59;4.65;;;4.25;;
55224;SDS011;41091;49.400;8.684;2024-03-22T02:00:24;5.28;;;4.30;;
55224;SDS011;41091;49.400;8.684;2024-03-22T02:02:50;12.15;;;4.28;;
55224;SDS011;41091;49.400;8.684;2024-03-22T02:05:15;5.97;;;4.30;;
55224;SDS011;41091;49.400;8.684;2024-03-22T02:07:44;6.28;;;5.03;;
55224;SDS011;41091;49.400;8.684;2024-03-22T02:10:09;7.88;;;4.63;;
55224;SDS011;41091;49.400;8.684;2024-03-22T02:12:36;5.30;;;4.00;;
55224;SDS011;41091;49.400;8.684;2024-03-22T02:15:04;5.85;;;4.50;;
55224;SDS011;41091;49.400;8.684;2024-03-22T02:17:32;4.30;;;3.95;;
55224;SDS011;41091;49.400;8.684;2024-03-22T02:19:57;4.88;;;4.47;;
55224;SDS011;41091;49.400;8.684;2024-03-22T02:22:23;6.25;;;4.72;;
55224;SDS011;41091;49.400;8.684;2024-03-22T02:24:48;6.82;;;4.60;;
55224;SDS011;41091;49.400;8.684;2024-03-22T02:27:13;9.48;;;5.18;;
55224;SDS011;41091;49.400;8.684;2024-03-22T02:29:39;4.88;;;4.38;;
55224;SDS011;41091;49.400;8.684;2024-03-22T02:32:05;8.02;;;4.47;;
55224;SDS011;41091;49.400;8.684;2024-03-22T02:34:31;8.77;;;5.10;;
55224;SDS011;41091;49.400;8.684;2024-03-22T02:36:56;7.25;;;5.50;;
55224;SDS011;41091;49.400;8.684;2024-03-22T02:39:21;5.07;;;4.32;;
55224;SDS011;41091;49.400;8.684;2024-03-22T02:41:47;7.03;;;4.10;;
55224;SDS011;41091;49.400;8.684;2024-03-22T02:44:12;8.48;;;4.85;;
55224;SDS011;41091;49.400;8.684;2024-03-22T02:46:37;6.78;;;4.70;;
55224;SDS011;41091;49.400;8.684;2024-03-22T02:49:03;6.35;;;4.65;;
55224;SDS011;41091;49.400;8.684;2024-03-22T02:51:28;6.50;;;4.35;;
55224;SDS011;41091;49.400;8.684;2024-03-22T02:53:53;5.28;;;4.07;;
55224;SDS011;41091;49.400;8.684;2024-03-22T02:56:19;4.78;;;4.15;;
55224;SDS011;41091;49.400;8.684;2024-03-22T02:58:44;8.10;;;4.35;;
55224;SDS011;41091;49.400;8.684;2024-03-22T03:01:09;9.95;;;4.78;;
55224;SDS011;41091;49.400;8.684;2024-03-22T03:03:35;5.20;;;4.30;;
55224;SDS011;41091;49.400;8.684;2024-03-22T03:06:00;9.10;;;4.63;;
55224;SDS011;41091;49.400;8.684;2024-03-22T03:08:28;6.50;;;4.38;;
55224;SDS011;41091;49.400;8.684;2024-03-22T03:10:53;6.18;;;4.30;;
55224;SDS011;41091;49.400;8.684;2024-03-22T03:13:19;9.18;;;5.45;;
55224;SDS011;41091;49.400;8.684;2024-03-22T03:15:44;8.25;;;4.70;;
55224;SDS011;41091;49.400;8.684;2024-03-22T03:18:09;8.25;;;5.13;;
55224;SDS011;41091;49.400;8.684;2024-03-22T03:20:35;6.18;;;5.38;;
55224;SDS011;41091;49.400;8.684;2024-03-22T03:23:00;8.50;;;5.38;;
55224;SDS011;41091;49.400;8.684;2024-03-22T03:25:26;6.43;;;5.28;;
55224;SDS011;41091;49.400;8.684;2024-03-22T03:27:52;6.68;;;5.97;;
55224;SDS011;41091;49.400;8.684;2024-03-22T03:30:17;8.23;;;5.95;;
55224;SDS011;41091;49.400;8.684;2024-03-22T03:32:42;9.38;;;5.40;;
55224;SDS011;41091;49.400;8.684;2024-03-22T03:35:08;5.05;;;4.65;;
55224;SDS011;41091;49.400;8.684;2024-03-22T03:37:33;7.40;;;5.00;;
55224;SDS011;41091;49.400;8.684;2024-03-22T03:39:58;8.18;;;5.03;;
55224;SDS011;41091;49.400;8.684;2024-03-22T03:42:24;7.68;;;5.85;;
55224;SDS011;41091;49.400;8.684;2024-03-22T03:44:49;11.60;;;5.55;;
55224;SDS011;41091;49.400;8.684;2024-03-22T03:47:14;6.63;;;6.00;;
55224;SDS011;41091;49.400;8.684;2024-03-22T03:49:40;6.47;;;5.43;;
55224;SDS011;41091;49.400;8.684;2024-03-22T03:52:05;11.45;;;5.45;;
55224;SDS011;41091;49.400;8.684;2024-03-22T03:54:31;6.90;;;6.05;;
55224;SDS011;41091;49.400;8.684;2024-03-22T03:56:57;13.50;;;6.45;;
55224;SDS011;41091;49.400;8.684;2024-03-22T03:59:22;9.85;;;5.90;;
55224;SDS011;41091;49.400;8.684;2024-03-22T04:01:47;6.00;;;5.40;;
55224;SDS011;41091;49.400;8.684;2024-03-22T04:04:13;7.80;;;5.38;;
55224;SDS011;41091;49.400;8.684;2024-03-22T04:06:38;6.85;;;5.80;;
55224;SDS011;41091;49.400;8.684;2024-03-22T04:09:03;6.28;;;5.45;;
55224;SDS011;41091;49.400;8.684;2024-03-22T04:11:29;5.78;;;5.18;;
55224;SDS011;41091;49.400;8.684;2024-03-22T04:13:55;8.05;;;5.45;;
55224;SDS011;41091;49.400;8.684;2024-03-22T04:16:20;7.70;;;5.47;;
55224;SDS011;41091;49.400;8.684;2024-03-22T04:18:46;8.98;;;5.18;;
55224;SDS011;41091;49.400;8.684;2024-03-22T04:21:11;5.55;;;4.88;;
55224;SDS011;41091;49.400;8.684;2024-03-22T04:23:36;11.77;;;5.10;;
55224;SDS011;41091;49.400;8.684;2024-03-22T04:26:02;8.38;;;5.13;;
55224;SDS011;41091;49.400;8.684;2024-03-22T04:28:28;8.95;;;5.28;;
55224;SDS011;41091;49.400;8.684;2024-03-22T04:31:11;6.57;;;5.22;;
55224;SDS011;41091;49.400;8.684;2024-03-22T04:33:37;9.77;;;4.82;;
55224;SDS011;41091;49.400;8.684;2024-03-22T04:36:03;4.70;;;4.20;;
55224;SDS011;41091;49.400;8.684;2024-03-22T04:38:29;4.60;;;4.20;;
55224;SDS011;41091;49.400;8.684;2024-03-22T04:40:54;6.63;;;4.70;;
55224;SDS011;41091;49.400;8.684;2024-03-22T04:43:20;6.93;;;4.85;;
55224;SDS011;41091;49.400;8.684;2024-03-22T04:45:46;5.82;;;5.28;;
55224;SDS011;41091;49.400;8.684;2024-03-22T04:48:12;5.30;;;4.78;;
55224;SDS011;41091;49.400;8.684;2024-03-22T04:50:39;12.82;;;4.35;;
55224;SDS011;41091;49.400;8.684;2024-03-22T04:53:04;13.70;;;5.15;;
55224;SDS011;41091;49.400;8.684;2024-03-22T04:55:30;4.88;;;4.45;;
55224;SDS011;41091;49.400;8.684;2024-03-22T04:57:56;8.38;;;5.10;;
55224;SDS011;41091;49.400;8.684;2024-03-22T05:00:21;5.05;;;4.55;;
55224;SDS011;41091;49.400;8.684;2024-03-22T05:02:46;5.50;;;4.75;;
55224;SDS011;41091;49.400;8.684;2024-03-22T05:05:12;5.93;;;4.30;;
55224;SDS011;41091;49.400;8.684;2024-03-22T05:07:38;4.70;;;4.30;;
55224;SDS011;41091;49.400;8.684;2024-03-22T05:10:03;4.60;;;4.00;;
55224;SDS011;41091;49.400;8.684;2024-03-22T05:12:29;4.38;;;3.97;;
55224;SDS011;41091;49.400;8.684;2024-03-22T05:14:54;6.15;;;4.43;;
55224;SDS011;41091;49.400;8.684;2024-03-22T05:17:20;4.65;;;4.18;;
55224;SDS011;41091;49.400;8.684;2024-03-22T05:19:45;5.68;;;4.80;;
55224;SDS011;41091;49.400;8.684;2024-03-22T05:22:10;6.22;;;4.63;;
55224;SDS011;41091;49.400;8.684;2024-03-22T05:24:36;6.97;;;4.38;;
55224;SDS011;41091;49.400;8.684;2024-03-22T05:27:01;4.70;;;4.30;;
55224;SDS011;41091;49.400;8.684;2024-03-22T05:29:26;11.65;;;4.72;;
55224;SDS011;41091;49.400;8.684;2024-03-22T05:31:52;5.35;;;4.55;;
55224;SDS011;41091;49.400;8.684;2024-03-22T05:34:18;4.97;;;4.50;;
55224;SDS011;41091;49.400;8.684;2024-03-22T05:36:43;4.82;;;4.40;;
55224;SDS011;41091;49.400;8.684;2024-03-22T05:39:10;4.50;;;4.10;;
55224;SDS011;41091;49.400;8.684;2024-03-22T05:41:38;4.90;;;4.43;;
55224;SDS011;41091;49.400;8.684;2024-03-22T05:44:03;4.60;;;4.15;;
55224;SDS011;41091;49.400;8.684;2024-03-22T05:46:29;6.28;;;4.03;;
55224;SDS011;41091;49.400;8.684;2024-03-22T05:48:55;5.30;;;4.53;;
55224;SDS011;41091;49.400;8.684;2024-03-22T05:51:21;5.28;;;4.78;;
55224;SDS011;41091;49.400;8.684;2024-03-22T05:53:46;5.00;;;4.55;;
55224;SDS011;41091;49.400;8.684;2024-03-22T05:56:12;4.55;;;4.15;;
55224;SDS011;41091;49.400;8.684;2024-03-22T05:58:37;6.80;;;4.40;;
55224;SDS011;41091;49.400;8.684;2024-03-22T06:01:02;5.65;;;4.15;;
55224;SDS011;41091;49.400;8.684;2024-03-22T06:03:28;10.52;;;4.80;;
55224;SDS011;41091;49.400;8.684;2024-03-22T06:05:54;9.65;;;4.38;;
55224;SDS011;41091;49.400;8.684;2024-03-22T06:08:21;7.75;;;5.20;;
55224;SDS011;41091;49.400;8.684;2024-03-22T06:10:47;5.80;;;4.68;;
55224;SDS011;41091;49.400;8.684;2024-03-22T06:13:13;5.72;;;4.85;;
55224;SDS011;41091;49.400;8.684;2024-03-22T06:15:38;6.30;;;4.53;;
55224;SDS011;41091;49.400;8.684;2024-03-22T06:18:03;8.07;;;5.50;;
55224;SDS011;41091;49.400;8.684;2024-03-22T06:20:29;6.57;;;5.18;;
55224;SDS011;41091;49.400;8.684;2024-03-22T06:22:55;7.63;;;5.18;;
55224;SDS011;41091;49.400;8.684;2024-03-22T06:25:20;6.03;;;5.20;;
55224;SDS011;41091;49.400;8.684;2024-03-22T06:27:46;6.70;;;5.07;;
55224;SDS011;41091;49.400;8.684;2024-03-22T06:30:11;12.60;;;5.63;;
55224;SDS011;41091;49.400;8.684;2024-03-22T06:32:36;10.52;;;5.22;;
55224;SDS011;41091;49.400;8.684;2024-03-22T06:35:02;5.65;;;5.15;;
55224;SDS011;41091;49.400;8.684;2024-03-22T06:37:28;5.53;;;4.97;;
55224;SDS011;41091;49.400;8.684;2024-03-22T06:39:53;8.63;;;5.28;;
55224;SDS011;41091;49.400;8.684;2024-03-22T06:42:18;8.77;;;5.97;;
55224;SDS011;41091;49.400;8.684;2024-03-22T06:44:44;6.43;;;5.65;;
55224;SDS011;41091;49.400;8.684;2024-03-22T06:47:09;6.53;;;4.15;;
55224;SDS011;41091;49.400;8.684;2024-03-22T06:49:34;5.43;;;4.72;;
55224;SDS011;41091;49.400;8.684;2024-03-22T06:52:00;4.90;;;4.50;;
55224;SDS011;41091;49.400;8.684;2024-03-22T06:54:25;5.43;;;4.93;;
55224;SDS011;41091;49.400;8.684;2024-03-22T06:56:51;12.48;;;5.28;;
55224;SDS011;41091;49.400;8.684;2024-03-22T06:59:17;6.88;;;4.88;;
55224;SDS011;41091;49.400;8.684;2024-03-22T07:01:42;9.57;;;6.63;;
55224;SDS011;41091;49.400;8.684;2024-03-22T07:04:07;8.85;;;6.50;;
55224;SDS011;41091;49.400;8.684;2024-03-22T07:06:33;11.90;;;7.43;;
55224;SDS011;41091;49.400;8.684;2024-03-22T07:08:58;9.57;;;7.28;;
55224;SDS011;41091;49.400;8.684;2024-03-22T07:11:23;9.63;;;6.68;;
55224;SDS011;41091;49.400;8.684;2024-03-22T07:13:49;8.10;;;7.28;;
55224;SDS011;41091;49.400;8.684;2024-03-22T07:16:14;17.20;;;8.50;;
55224;SDS011;41091;49.400;8.684;2024-03-22T07:18:39;12.50;;;7.47;;
55224;SDS011;41091;49.400;8.684;2024-03-22T07:21:05;11.30;;;6.88;;
55224;SDS011;41091;49.400;8.684;2024-03-22T07:23:30;9.10;;;6.60;;
55224;SDS011;41091;49.400;8.684;2024-03-22T07:25:56;11.85;;;7.18;;
55224;SDS011;41091;49.400;8.684;2024-03-22T07:28:21;7.75;;;6.88;;
55224;SDS011;41091;49.400;8.684;2024-03-22T07:30:46;49.28;;;23.77;;
55224;SDS011;41091;49.400;8.684;2024-03-22T07:33:12;27.95;;;13.40;;
55224;SDS011;41091;49.400;8.684;2024-03-22T07:35:42;7.65;;;6.85;;
55224;SDS011;41091;49.400;8.684;2024-03-22T07:38:08;9.75;;;7.45;;
55224;SDS011;41091;49.400;8.684;2024-03-22T07:40:33;10.00;;;7.65;;
55224;SDS011;41091;49.400;8.684;2024-03-22T07:42:58;11.32;;;7.40;;
55224;SDS011;41091;49.400;8.684;2024-03-22T07:45:24;11.82;;;7.00;;
55224;SDS011;41091;49.400;8.684;2024-03-22T07:47:50;8.38;;;7.47;;
55224;SDS011;41091;49.400;8.684;2024-03-22T07:50:15;11.70;;;8.38;;
55224;SDS011;41091;49.400;8.684;2024-03-22T07:52:40;13.77;;;7.47;;
55224;SDS011;41091;49.400;8.684;2024-03-22T07:55:06;10.73;;;6.63;;
55224;SDS011;41091;49.400;8.684;2024-03-22T07:57:32;13.55;;;6.93;;
55224;SDS011;41091;49.400;8.684;2024-03-22T07:59:57;7.57;;;6.70;;
55224;SDS011;41091;49.400;8.684;2024-03-22T08:02:23;6.75;;;6.05;;
55224;SDS011;41091;49.400;8.684;2024-03-22T08:04:49;11.45;;;7.32;;
55224;SDS011;41091;49.400;8.684;2024-03-22T08:07:20;9.38;;;6.40;;
55224;SDS011;41091;49.400;8.684;2024-03-22T08:09:46;8.68;;;6.63;;
55224;SDS011;41091;49.400;8.684;2024-03-22T08:12:11;12.07;;;6.75;;
55224;SDS011;41091;49.400;8.684;2024-03-22T08:14:36;6.45;;;5.78;;
55224;SDS011;41091;49.400;8.684;2024-03-22T08:17:02;7.65;;;5.75;;
55224;SDS011;41091;49.400;8.684;2024-03-22T08:19:28;8.75;;;5.35;;
55224;SDS011;41091;49.400;8.684;2024-03-22T08:21:53;18.48;;;5.47;;
55224;SDS011;41091;49.400;8.684;2024-03-22T08:24:19;7.45;;;5.70;;
55224;SDS011;41091;49.400;8.684;2024-03-22T08:26:44;5.55;;;4.70;;
55224;SDS011;41091;49.400;8.684;2024-03-22T08:29:12;6.10;;;5.03;;
55224;SDS011;41091;49.400;8.684;2024-03-22T08:31:41;7.43;;;5.45;;
55224;SDS011;41091;49.400;8.684;2024-03-22T08:34:07;8.60;;;5.15;;
55224;SDS011;41091;49.400;8.684;2024-03-22T08:36:33;6.32;;;5.20;;
55224;SDS011;41091;49.400;8.684;2024-03-22T08:38:58;7.72;;;4.78;;
55224;SDS011;41091;49.400;8.684;2024-03-22T08:41:24;5.20;;;4.75;;
55224;SDS011;41091;49.400;8.684;2024-03-22T08:43:49;6.85;;;4.68;;
55224;SDS011;41091;49.400;8.684;2024-03-22T08:46:14;6.40;;;4.60;;
55224;SDS011;41091;49.400;8.684;2024-03-22T08:48:40;12.50;;;5.18;;
55224;SDS011;41091;49.400;8.684;2024-03-22T08:51:05;9.25;;;5.13;;
55224;SDS011;41091;49.400;8.684;2024-03-22T08:53:30;5.20;;;4.65;;
55224;SDS011;41091;49.400;8.684;2024-03-22T08:55:56;6.82;;;4.97;;
55224;SDS011;41091;49.400;8.684;2024-03-22T08:58:21;13.57;;;5.20;;
55224;SDS011;41091;49.400;8.684;2024-03-22T09:00:46;7.45;;;4.45;;
55224;SDS011;41091;49.400;8.684;2024-03-22T09:03:12;8.13;;;4.90;;
55224;SDS011;41091;49.400;8.684;2024-03-22T09:05:38;6.03;;;5.15;;
55224;SDS011;41091;49.400;8.684;2024-03-22T09:08:04;8.70;;;5.32;;
55224;SDS011;41091;49.400;8.684;2024-03-22T09:10:32;8.00;;;4.95;;
55224;SDS011;41091;49.400;8.684;2024-03-22T09:12:57;5.75;;;4.82;;
55224;SDS011;41091;49.400;8.684;2024-03-22T09:15:23;10.20;;;5.13;;
55224;SDS011;41091;49.400;8.684;2024-03-22T09:17:49;6.32;;;4.00;;
55224;SDS011;41091;49.400;8.684;2024-03-22T09:20:15;7.78;;;4.40;;
55224;SDS011;41091;49.400;8.684;2024-03-22T09:22:40;5.78;;;4.75;;
55224;SDS011;41091;49.400;8.684;2024-03-22T09:25:06;6.20;;;4.40;;
55224;SDS011;41091;49.400;8.684;2024-03-22T09:27:32;5.10;;;4.30;;
55224;SDS011;41091;49.400;8.684;2024-03-22T09:29:57;5.07;;;4.55;;
55224;SDS011;41091;49.400;8.684;2024-03-22T09:32:23;8.88;;;4.30;;
55224;SDS011;41091;49.400;8.684;2024-03-22T09:34:48;6.85;;;4.25;;
55224;SDS011;41091;49.400;8.684;2024-03-22T09:37:15;15.25;;;4.63;;
55224;SDS011;41091;49.400;8.684;2024-03-22T09:39:40;7.35;;;4.28;;
55224;SDS011;41091;49.400;8.684;2024-03-22T09:42:06;5.13;;;4.22;;
55224;SDS011;41091;49.400;8.684;2024-03-22T09:44:32;4.75;;;4.13;;
55224;SDS011;41091;49.400;8.684;2024-03-22T09:47:00;6.68;;;4.93;;
55224;SDS011;41091;49.400;8.684;2024-03-22T09:49:25;6.32;;;4.70;;
55224;SDS011;41091;49.400;8.684;2024-03-22T09:51:51;5.32;;;4.00;;
55224;SDS011;41091;49.400;8.684;2024-03-22T09:54:17;5.15;;;4.40;;
55224;SDS011;41091;49.400;8.684;2024-03-22T09:56:42;8.70;;;5.10;;
55224;SDS011;41091;49.400;8.684;2024-03-22T09:59:08;6.22;;;5.20;;
55224;SDS011;41091;49.400;8.684;2024-03-22T10:01:35;5.07;;;4.63;;
55224;SDS011;41091;49.400;8.684;2024-03-22T10:04:01;6.20;;;4.53;;
55224;SDS011;41091;49.400;8.684;2024-03-22T10:06:28;5.05;;;4.55;;
55224;SDS011;41091;49.400;8.684;2024-03-22T10:08:54;5.85;;;5.15;;
55224;SDS011;41091;49.400;8.684;2024-03-22T10:11:20;11.07;;;4.32;;
55224;SDS011;41091;49.400;8.684;2024-03-22T10:13:45;4.07;;;3.72;;
55224;SDS011;41091;49.400;8.684;2024-03-22T10:18:41;8.83;;;3.97;;
55224;SDS011;41091;49.400;8.684;2024-03-22T10:21:07;5.22;;;3.45;;
55224;SDS011;41091;49.400;8.684;2024-03-22T10:23:32;4.65;;;3.83;;
55224;SDS011;41091;49.400;8.684;2024-03-22T10:25:58;5.03;;;4.20;;
55224;SDS011;41091;49.400;8.684;2024-03-22T10:28:24;4.68;;;4.18;;
55224;SDS011;41091;49.400;8.684;2024-03-22T10:30:50;8.98;;;4.70;;
55224;SDS011;41091;49.400;8.684;2024-03-22T10:33:18;4.55;;;4.15;;
55224;SDS011;41091;49.400;8.684;2024-03-22T10:35:44;5.55;;;4.03;;
55224;SDS011;41091;49.400;8.684;2024-03-22T10:38:10;10.77;;;3.80;;
55224;SDS011;41091;49.400;8.684;2024-03-22T10:40:37;5.05;;;4.65;;
55224;SDS011;41091;49.400;8.684;2024-03-22T10:43:04;7.28;;;3.90;;
55224;SDS011;41091;49.400;8.684;2024-03-22T10:45:29;4.63;;;4.20;;
55224;SDS011;41091;49.400;8.684;2024-03-22T10:47:55;5.05;;;4.15;;
55224;SDS011;41091;49.400;8.684;2024-03-22T10:50:21;4.60;;;4.05;;
55224;SDS011;41091;49.400;8.684;2024-03-22T10:52:50;10.38;;;5.18;;
55224;SDS011;41091;49.400;8.684;2024-03-22T10:55:30;9.38;;;3.95;;
55224;SDS011;41091;49.400;8.684;2024-03-22T10:57:59;6.13;;;3.55;;
55224;SDS011;41091;49.400;8.684;2024-03-22T11:00:28;5.43;;;3.42;;
55224;SDS011;41091;49.400;8.684;2024-03-22T11:02:54;5.38;;;3.72;;
55224;SDS011;41091;49.400;8.684;2024-03-22T11:05:20;6.97;;;4.22;;
55224;SDS011;41091;49.400;8.684;2024-03-22T11:07:45;11.75;;;3.92;;
55224;SDS011;41091;49.400;8.684;2024-03-22T11:10:11;5.32;;;4.57;;
55224;SDS011;41091;49.400;8.684;2024-03-22T11:12:37;6.38;;;3.78;;
55224;SDS011;41091;49.400;8.684;2024-03-22T11:15:04;7.07;;;3.90;;
55224;SDS011;41091;49.400;8.684;2024-03-22T11:17:29;4.95;;;3.63;;
55224;SDS011;41091;49.400;8.684;2024-03-22T11:19:55;11.13;;;3.85;;
55224;SDS011;41091;49.400;8.684;2024-03-22T11:22:20;11.98;;;4.20;;
55224;SDS011;41091;49.400;8.684;2024-03-22T11:24:45;13.55;;;3.75;;
55224;SDS011;41091;49.400;8.684;2024-03-22T11:27:11;4.40;;;4.00;;
55224;SDS011;41091;49.400;8.684;2024-03-22T11:29:37;5.05;;;3.35;;
55224;SDS011;41091;49.400;8.684;2024-03-22T11:32:09;8.80;;;3.15;;
55224;SDS011;41091;49.400;8.684;2024-03-22T11:34:35;5.72;;;4.03;;
55224;SDS011;41091;49.400;8.684;2024-03-22T11:37:01;5.18;;;3.22;;
55224;SDS011;41091;49.400;8.684;2024-03-22T11:39:27;3.15;;;2.85;;
55224;SDS011;41091;49.400;8.684;2024-03-22T11:41:52;4.43;;;3.20;;
55224;SDS011;41091;49.400;8.684;2024-03-22T11:44:18;8.00;;;3.08;;
55224;SDS011;41091;49.400;8.684;2024-03-22T11:46:43;3.53;;;2.88;;
55224;SDS011;41091;49.400;8.684;2024-03-22T11:49:09;6.15;;;3.03;;
55224;SDS011;41091;49.400;8.684;2024-03-22T11:51:35;3.83;;;2.70;;
55224;SDS011;41091;49.400;8.684;2024-03-22T11:54:02;4.18;;;3.05;;
55224;SDS011;41091;49.400;8.684;2024-03-22T11:56:28;3.28;;;2.42;;
55224;SDS011;41091;49.400;8.684;2024-03-22T11:59:00;7.97;;;2.67;;
55224;SDS011;41091;49.400;8.684;2024-03-22T12:01:26;4.18;;;3.35;;
55224;SDS011;41091;49.400;8.684;2024-03-22T12:03:51;6.15;;;3.03;;
55224;SDS011;41091;49.400;8.684;2024-03-22T12:06:17;4.25;;;2.92;;
55224;SDS011;41091;49.400;8.684;2024-03-22T12:08:42;6.15;;;3.05;;
55224;SDS011;41091;49.400;8.684;2024-03-22T12:11:08;5.10;;;2.50;;
55224;SDS011;41091;49.400;8.684;2024-03-22T12:13:34;4.68;;;2.95;;
55224;SDS011;41091;49.400;8.684;2024-03-22T12:15:59;3.47;;;2.63;;
55224;SDS011;41091;49.400;8.684;2024-03-22T12:18:25;5.57;;;3.47;;
55224;SDS011;41091;49.400;8.684;2024-03-22T12:20:50;5.60;;;2.95;;
55224;SDS011;41091;49.400;8.684;2024-03-22T12:23:16;5.97;;;3.72;;
55224;SDS011;41091;49.400;8.684;2024-03-22T12:25:41;3.17;;;2.65;;
55224;SDS011;41091;49.400;8.684;2024-03-22T12:28:06;6.60;;;2.88;;
55224;SDS011;41091;49.400;8.684;2024-03-22T12:30:32;2.60;;;2.40;;
55224;SDS011;41091;49.400;8.684;2024-03-22T12:32:58;3.45;;;2.78;;
55224;SDS011;41091;49.400;8.684;2024-03-22T12:35:24;6.75;;;2.63;;
55224;SDS011;41091;49.400;8.684;2024-03-22T12:37:50;3.17;;;2.90;;
55224;SDS011;41091;49.400;8.684;2024-03-22T12:40:16;4.68;;;2.40;;
55224;SDS011;41091;49.400;8.684;2024-03-22T12:42:41;2.90;;;2.53;;
55224;SDS011;41091;49.400;8.684;2024-03-22T12:45:06;3.53;;;2.90;;
55224;SDS011;41091;49.400;8.684;2024-03-22T12:47:32;3.47;;;3.17;;
55224;SDS011;41091;49.400;8.684;2024-03-22T12:49:58;4.00;;;2.30;;
55224;SDS011;41091;49.400;8.684;2024-03-22T12:52:23;3.97;;;3.67;;
55224;SDS011;41091;49.400;8.684;2024-03-22T12:54:48;9.35;;;3.38;;
55224;SDS011;41091;49.400;8.684;2024-03-22T12:57:14;4.63;;;2.72;;
55224;SDS011;41091;49.400;8.684;2024-03-22T12:59:39;4.10;;;3.03;;
55224;SDS011;41091;49.400;8.684;2024-03-22T13:02:04;3.97;;;2.90;;
55224;SDS011;41091;49.400;8.684;2024-03-22T13:04:30;7.40;;;2.78;;
55224;SDS011;41091;49.400;8.684;2024-03-22T13:06:56;4.22;;;2.33;;
55224;SDS011;41091;49.400;8.684;2024-03-22T13:09:21;3.92;;;2.53;;
55224;SDS011;41091;49.400;8.684;2024-03-22T13:11:47;4.47;;;2.38;;
55224;SDS011;41091;49.400;8.684;2024-03-22T13:14:13;7.15;;;2.92;;
55224;SDS011;41091;49.400;8.684;2024-03-22T13:16:39;6.78;;;2.90;;
55224;SDS011;41091;49.400;8.684;2024-03-22T13:19:05;2.75;;;2.25;;
55224;SDS011;41091;49.400;8.684;2024-03-22T13:21:33;4.53;;;2.60;;
55224;SDS011;41091;49.400;8.684;2024-03-22T13:23:58;3.22;;;2.92;;
55224;SDS011;41091;49.400;8.684;2024-03-22T13:26:24;2.83;;;2.63;;
55224;SDS011;41091;49.400;8.684;2024-03-22T13:28:49;3.13;;;2.53;;
55224;SDS011;41091;49.400;8.684;2024-03-22T13:31:14;5.13;;;2.88;;
55224;SDS011;41091;49.400;8.684;2024-03-22T13:33:40;6.25;;;3.35;;
55224;SDS011;41091;49.400;8.684;2024-03-22T13:36:06;7.32;;;2.67;;
55224;SDS011;41091;49.400;8.684;2024-03-22T13:38:31;3.90;;;2.60;;
55224;SDS011;41091;49.400;8.684;2024-03-22T13:40:57;5.95;;;3.05;;
55224;SDS011;41091;49.400;8.684;2024-03-22T13:43:23;9.15;;;2.80;;
55224;SDS011;41091;49.400;8.684;2024-03-22T13:45:51;3.50;;;2.88;;
55224;SDS011;41091;49.400;8.684;2024-03-22T13:48:20;7.22;;;3.10;;
55224;SDS011;41091;49.400;8.684;2024-03-22T13:50:49;2.85;;;2.28;;
55224;SDS011;41091;49.400;8.684;2024-03-22T13:53:15;3.55;;;2.42;;
55224;SDS011;41091;49.400;8.684;2024-03-22T13:55:42;4.63;;;3.08;;
55224;SDS011;41091;49.400;8.684;2024-03-22T13:58:11;5.03;;;2.38;;
55224;SDS011;41091;49.400;8.684;2024-03-22T14:00:37;13.23;;;3.05;;
55224;SDS011;41091;49.400;8.684;2024-03-22T14:03:02;3.20;;;2.28;;
55224;SDS011;41091;49.400;8.684;2024-03-22T14:05:28;2.78;;;2.28;;
55224;SDS011;41091;49.400;8.684;2024-03-22T14:07:54;5.88;;;2.53;;
55224;SDS011;41091;49.400;8.684;2024-03-22T14:10:19;5.97;;;2.22;;
55224;SDS011;41091;49.400;8.684;2024-03-22T14:12:47;3.83;;;3.25;;
55224;SDS011;41091;49.400;8.684;2024-03-22T14:15:13;6.60;;;3.63;;
55224;SDS011;41091;49.400;8.684;2024-03-22T14:17:38;5.18;;;2.88;;
55224;SDS011;41091;49.400;8.684;2024-03-22T14:20:04;8.98;;;2.30;;
55224;SDS011;41091;49.400;8.684;2024-03-22T14:22:36;3.63;;;2.25;;
55224;SDS011;41091;49.400;8.684;2024-03-22T14:25:01;7.63;;;2.35;;
55224;SDS011;41091;49.400;8.684;2024-03-22T14:27:28;2.47;;;2.05;;
55224;SDS011;41091;49.400;8.684;2024-03-22T14:29:53;3.50;;;2.50;;
55224;SDS011;41091;49.400;8.684;2024-03-22T14:32:19;4.10;;;2.15;;
55224;SDS011;41091;49.400;8.684;2024-03-22T14:34:44;4.15;;;2.13;;
55224;SDS011;41091;49.400;8.684;2024-03-22T14:37:12;2.42;;;2.15;;
55224;SDS011;41091;49.400;8.684;2024-03-22T14:39:37;6.88;;;2.35;;